Data for 07/13/2008

Time Sea-Level Adjusted Pressure Absolute Pressure Temperature Relative Humidity Dew Point   
(mb) (inHg) (mb) (inHg) (C) (F) (%) (C) (F)
00:05 1022 30.18 851 25.13 15.7 60.3 23 -5.4 22.3
00:10 1022 30.18 851 25.13 15.9 60.6 24 -4.6 23.7
00:15 1022 30.18 851 25.13 15.8 60.4 26 -3.6 25.6
00:20 1022 30.18 851 25.13 15.6 60.1 28 -2.7 27.2
00:25 1022 30.18 851 25.13 14.6 58.2 32 -2 28.3
00:30 1022 30.18 851 25.13 13.8 56.9 33 -2.2 28.1
00:35 1022 30.18 851 25.13 13.6 56.5 33 -2.3 27.8
00:40 1022 30.18 851 25.13 13.5 56.3 33 -2.4 27.7
00:45 1022 30.18 851 25.13 13.5 56.2 32 -2.9 26.9
00:50 1022 30.18 851 25.13 13.5 56.3 32 -2.7 27.1
00:55 1022 30.18 851 25.13 13.4 56.1 32 -3.1 26.5
01:00 1022 30.18 851 25.13 13.7 56.6 29 -3.8 25.1
01:05 1022 30.18 851 25.13 13.7 56.7 29 -3.7 25.3
01:10 1022 30.18 851 25.13 13.7 56.6 28 -4.3 24.3
01:15 1022 30.18 851 25.13 14.1 57.4 28 -4 24.8
01:20 1022 30.18 851 25.13 14 57.2 29 -3.4 25.8
01:25 1022 30.18 852 25.16 13.7 56.7 30 -3.4 25.9
01:30 1022 30.18 852 25.16 13.6 56.4 31 -3.1 26.5
01:35 1022 30.18 852 25.16 13.1 55.6 33 -2.6 27.3
01:40 1022 30.18 852 25.16 12.8 55.1 34 -2.6 27.3
01:45 1022 30.18 852 25.16 12.7 54.9 29 -4.7 23.6
01:50 1022 30.18 852 25.16 13.4 56.2 31 -3.4 25.9
01:55 1022 30.18 852 25.16 13.1 55.5 31 -3.6 25.4
02:00 1022 30.18 852 25.16 12.8 55 30 -4.2 24.5
02:05 1022 30.18 852 25.16 12.9 55.3 29 -4.4 24.1
02:10 1022 30.18 852 25.16 12.9 55.2 31 -3.8 25.1
02:15 1022 30.18 852 25.16 12.7 54.9 31 -4 24.7
02:20 1022 30.18 852 25.16 12.7 54.9 33 -3 26.5
02:25 1022 30.18 852 25.16 12.5 54.5 32 -3.6 25.5
02:30 1022 30.18 852 25.16 12.5 54.4 33 -3.2 26.3
02:35 1022 30.18 852 25.16 12.3 54.2 32 -3.8 25.2
02:40 1022 30.18 852 25.16 12.3 54.2 33 -3.4 25.8
02:45 1022 30.18 852 25.16 12.1 53.8 33 -3.7 25.4
02:50 1022 30.18 852 25.16 12 53.7 33 -3.7 25.3
02:55 1022 30.18 852 25.16 12 53.5 32 -4.1 24.7
03:00 1022 30.18 852 25.16 12.3 54.1 33 -3.6 25.5
03:05 1022 30.18 852 25.16 12.1 53.8 32 -3.9 25.1
03:10 1023 30.21 852 25.16 11.9 53.3 34 -3.6 25.5
03:15 1023 30.21 852 25.16 11.4 52.4 35 -3.4 26
03:20 1023 30.21 852 25.16 11.3 52.4 33 -4.3 24.2
03:25 1023 30.21 852 25.16 11.4 52.4 33 -4.2 24.5
03:30 1023 30.21 852 25.16 11.3 52.3 34 -4 24.9
03:35 1023 30.21 852 25.16 11.2 52.1 35 -3.9 25
03:40 1023 30.21 852 25.16 11 51.8 36 -3.3 26
03:45 1023 30.21 852 25.16 10.8 51.4 37 -3.3 26
03:50 1023 30.21 852 25.16 10.6 51.1 36 -3.7 25.3
03:55 1023 30.21 852 25.16 10.8 51.4 35 -4.1 24.6
04:00 1023 30.21 852 25.16 11.1 52 33 -4.7 23.6
04:05 1023 30.21 852 25.16 11.5 52.7 33 -4 24.7
04:10 1023 30.21 852 25.16 11.7 53 32 -4.4 24.1
04:15 1023 30.21 852 25.16 11.8 53.2 31 -4.6 23.7
04:20 1023 30.21 852 25.16 11.8 53.3 32 -4.4 24.1
04:25 1023 30.21 852 25.16 11.5 52.7 33 -4 24.8
04:30 1023 30.21 852 25.16 11 51.8 36 -3.5 25.7
04:35 1023 30.21 852 25.16 10.5 50.9 35 -4.1 24.6
04:40 1023 30.21 852 25.16 10.9 51.7 35 -3.8 25.2
04:45 1023 30.21 852 25.16 10.7 51.2 37 -3.5 25.7
04:50 1023 30.21 852 25.16 10.5 50.9 36 -4 24.8
04:55 1023 30.21 852 25.16 10.7 51.3 34 -4.5 23.9
05:00 1023 30.21 852 25.16 11 51.7 35 -4 24.7
05:05 1023 30.21 852 25.16 11 51.7 34 -4.2 24.5
05:10 1023 30.21 852 25.16 10.9 51.6 34 -4.3 24.2
05:15 1023 30.21 852 25.16 10.8 51.5 34 -4.2 24.5
05:20 1023 30.21 852 25.16 10.7 51.2 36 -3.9 24.9
05:25 1023 30.21 852 25.16 10.6 51.1 36 -4 24.9
05:30 1023 30.21 852 25.16 10.8 51.5 36 -3.8 25.2
05:35 1023 30.21 852 25.16 10.7 51.3 36 -3.6 25.5
05:40 1023 30.21 852 25.16 10.5 51 37 -3.4 25.8
05:45 1023 30.21 852 25.16 10.4 50.8 36 -4.1 24.7
05:50 1023 30.21 852 25.16 10.6 51.1 35 -4.2 24.5
05:55 1023 30.21 852 25.16 10.8 51.5 35 -4 24.8
06:00 1023 30.21 852 25.16 10.9 51.6 35 -4 24.8
06:05 1023 30.21 852 25.16 10.9 51.6 35 -3.9 25
06:10 1023 30.21 852 25.16 10.9 51.6 33 -4.8 23.3
06:15 1023 30.21 852 25.16 11.4 52.5 32 -4.5 23.8
06:20 1023 30.21 852 25.16 11.5 52.8 32 -4.4 24.1
06:25 1023 30.21 852 25.16 11.7 53 32 -4.6 23.8
06:30 1023 30.21 852 25.16 11.9 53.4 32 -4.3 24.3
06:35 1023 30.21 852 25.16 11.9 53.4 32 -4.4 24.1
06:40 1023 30.21 852 25.16 11.9 53.4 32 -4.2 24.5
06:45 1023 30.21 852 25.16 11.9 53.4 32 -4.2 24.5
06:50 1023 30.21 852 25.16 12 53.6 33 -3.9 25
06:55 1023 30.21 852 25.16 11.9 53.4 36 -2.7 27.1
07:00 1023 30.21 852 25.16 11.8 53.3 37 -2.4 27.7
07:05 1023 30.21 852 25.16 11.7 53.1 36 -2.8 26.9
07:10 1023 30.21 852 25.16 12 53.6 36 -2.6 27.4
07:15 1023 30.21 852 25.16 12.3 54.1 36 -2.3 27.9
07:20 1023 30.21 852 25.16 12.5 54.5 35 -2.3 27.9
07:25 1023 30.21 852 25.16 13.1 55.5 33 -2.6 27.3
07:30 1023 30.21 852 25.16 13.4 56 33 -2.7 27.1
07:35 1023 30.21 852 25.16 13.7 56.7 33 -2.3 27.8
07:40 1023 30.21 852 25.16 13.9 57.1 32 -2.6 27.4
07:45 1023 30.21 852 25.16 14.1 57.5 34 -1.6 29.1
07:50 1023 30.21 852 25.16 14.7 58.4 32 -1.7 28.9
07:55 1023 30.21 852 25.16 15.3 59.5 32 -1.4 29.5
08:00 1023 30.21 852 25.16 15.5 59.9 32 -1.2 29.9
08:05 1023 30.21 852 25.16 16.3 61.3 31 -0.8 30.5
08:10 1023 30.21 852 25.16 16.8 62.3 31 -0.4 31.4
08:15 1023 30.21 852 25.16 17.2 63 31 0.1 32.1
08:20 1023 30.21 852 25.16 17.6 63.6 30 0 32
08:25 1023 30.21 852 25.16 17.9 64.1 29 -0.3 31.4
08:30 1023 30.21 852 25.16 18 64.5 29 -0.1 31.9
08:35 1023 30.21 852 25.16 18.2 64.7 27 -1 30.1
08:40 1023 30.21 852 25.16 18.8 65.8 26 -1.2 29.9
08:45 1023 30.21 852 25.16 18.9 66 26 -1.1 30
08:50 1023 30.21 852 25.16 19.2 66.6 26 -0.6 30.9
08:55 1023 30.21 852 25.16 19.7 67.4 24 -1.1 30.1
09:00 1023 30.21 852 25.16 19.6 67.2 27 0.1 32.2
09:05 1023 30.21 852 25.16 19 66.3 27 -0.1 31.9
09:10 1023 30.21 852 25.16 18.6 65.5 28 0 32
09:15 1023 30.21 852 25.16 19.8 67.7 25 -0.4 31.2
09:20 1023 30.21 852 25.16 20.6 69 24 -0.6 30.8
09:25 1023 30.21 852 25.16 20.3 68.5 25 -0.3 31.4
09:30 1023 30.21 852 25.16 21.1 69.9 24 -0.4 31.3
09:35 1023 30.21 852 25.16 20.9 69.5 24 -0.4 31.3
09:40 1023 30.21 852 25.16 20.9 69.5 24 -0.5 31.1
09:45 1023 30.21 852 25.16 20.7 69.3 24 -0.4 31.3
09:50 1023 30.21 852 25.16 20.7 69.3 23 -0.8 30.6
09:55 1023 30.21 852 25.16 21.4 70.5 23 -0.5 31.1
10:00 1023 30.21 852 25.16 21.4 70.4 23 -0.5 31.2
10:05 1023 30.21 852 25.16 21.3 70.4 24 -0 32
10:10 1023 30.21 852 25.16 21.4 70.5 23 -0.7 30.8
10:15 1023 30.21 852 25.16 21.4 70.5 22 -0.8 30.6
10:20 1023 30.21 852 25.16 22.2 71.9 22 -0.3 31.4
10:25 1023 30.21 852 25.16 21.7 71.1 21 -1.2 29.9
10:30 1023 30.21 852 25.16 22.8 73 21 -0.8 30.6
10:35 1023 30.21 852 25.16 22.5 72.5 22 -0.1 31.8
10:40 1022 30.18 852 25.16 22.8 73 21 -0.5 31.1
10:45 1022 30.18 852 25.16 22.3 72.1 24 0.6 33.1
10:50 1022 30.18 852 25.16 22.7 72.8 21 -0.6 30.9
10:55 1022 30.18 852 25.16 22 71.7 23 0.3 32.5
11:00 1022 30.18 852 25.16 22.4 72.3 21 -1.1 30
11:05 1022 30.18 852 25.16 23.1 73.6 21 -0.3 31.5
11:10 1022 30.18 852 25.16 23.4 74.2 21 0.1 32.1
11:15 1022 30.18 852 25.16 23.4 74.1 21 0.1 32.1
11:20 1022 30.18 852 25.16 23.8 74.8 20 -0.5 31.1
11:25 1022 30.18 851 25.13 24.2 75.5 20 0.3 32.5
11:30 1022 30.18 851 25.13 24.1 75.5 19 -0.9 30.3
11:35 1022 30.18 851 25.13 24.4 75.9 19 -0.8 30.6
11:40 1022 30.18 851 25.13 24.6 76.2 16 -2.6 27.3
11:45 1022 30.18 851 25.13 24.8 76.6 18 -0.9 30.4
11:50 1022 30.18 851 25.13 24.4 75.9 17 -1.7 29
11:55 1022 30.18 851 25.13 24.9 76.7 18 -1.1 30
12:00 1022 30.18 851 25.13 24.8 76.7 16 -2.6 27.4
12:05 1022 30.18 851 25.13 23.4 74.2 18 -2.1 28.3
12:10 1022 30.18 851 25.13 24.2 75.5 18 -1.8 28.8
12:15 1022 30.18 851 25.13 24 75.2 19 -1 30.1
12:20 1022 30.18 851 25.13 24 75.1 17 -2.7 27.1
12:25 1022 30.18 851 25.13 24.4 75.9 17 -2 28.5
12:30 1022 30.18 851 25.13 24.5 76.1 15 -3.1 26.3
12:35 1022 30.18 851 25.13 23.7 74.6 16 -3.5 25.7
12:40 1021 30.15 851 25.13 24.5 76.2 16 -3 26.7
12:45 1021 30.15 851 25.13 24.7 76.5 15 -3.4 25.9
12:50 1021 30.15 851 25.13 25.1 77.1 15 -2.9 26.8
12:55 1021 30.15 851 25.13 25.4 77.7 15 -3 26.6
13:00 1021 30.15 850 25.1 26 78.8 14 -3.1 26.5
13:05 1021 30.15 850 25.1 26.4 79.5 15 -2.2 28.1
13:10 1021 30.15 850 25.1 26.4 79.5 15 -2.2 28
13:15 1021 30.15 850 25.1 26.5 79.7 13 -4 24.8
13:20 1021 30.15 850 25.1 25.8 78.5 14 -3.6 25.5
13:25 1021 30.15 850 25.1 26.3 79.3 14 -3.2 26.3
13:30 1021 30.15 850 25.1 26.3 79.3 14 -2.8 27
13:35 1021 30.15 850 25.1 25.5 77.9 14 -3.8 25.2
13:40 1021 30.15 850 25.1 26.1 78.9 13 -4 24.8
13:45 1021 30.15 850 25.1 25.6 78.2 15 -2.4 27.7
13:50 1021 30.15 850 25.1 24.7 76.5 16 -2.4 27.7
13:55 1021 30.15 850 25.1 25.8 78.5 15 -2.9 26.8
14:00 1021 30.15 850 25.1 25.9 78.6 15 -2.2 28
14:05 1020 30.12 850 25.1 25.3 77.5 14 -3.7 25.3
14:10 1020 30.12 850 25.1 25.8 78.4 14 -3.1 26.4
14:15 1020 30.12 850 25.1 25.2 77.3 15 -3.2 26.2
14:20 1020 30.12 850 25.1 25.5 77.9 14 -3.3 26
14:25 1020 30.12 849 25.07 25.9 78.6 15 -2.8 27
14:30 1020 30.12 849 25.07 26.5 79.6 14 -3.1 26.5
14:35 1020 30.12 849 25.07 26.9 80.4 13 -3.2 26.2
14:40 1020 30.12 849 25.07 27 80.5 13 -3.1 26.4
14:45 1020 30.12 849 25.07 26.3 79.3 14 -3.3 26.1
14:50 1020 30.12 849 25.07 27.6 81.6 13 -2.8 27
14:55 1020 30.12 849 25.07 27.3 81.2 14 -2.4 27.7
15:00 1020 30.12 849 25.07 27.9 82.3 13 -2.3 27.9
15:05 1020 30.12 849 25.07 28.2 82.7 13 -3 26.5
15:10 1020 30.12 849 25.07 27.6 81.7 14 -2.4 27.6
15:15 1020 30.12 849 25.07 27.4 81.3 14 -2.2 28
15:20 1020 30.12 849 25.07 26.4 79.6 14 -3.2 26.3
15:25 1020 30.12 849 25.07 26.3 79.3 13 -3.9 25.1
15:30 1020 30.12 849 25.07 26.6 79.9 13 -3.4 25.9
15:35 1020 30.12 849 25.07 27.4 81.4 14 -2.4 27.7
15:40 1020 30.12 849 25.07 27.7 81.8 13 -2.6 27.4
15:45 1020 30.12 849 25.07 27.3 81.2 14 -2.3 27.9
15:50 1019 30.09 849 25.07 27 80.5 13 -3.3 26
15:55 1019 30.09 849 25.07 27.2 80.9 13 -2.9 26.9
16:00 1019 30.09 849 25.07 27.6 81.7 13 -3.1 26.4
16:05 1019 30.09 849 25.07 27.8 82.1 13 -2.8 27
16:10 1019 30.09 848 25.04 28.4 83.1 13 -2.8 27
16:15 1019 30.09 848 25.04 28.6 83.4 13 -2.5 27.6
16:20 1019 30.09 848 25.04 28.7 83.7 13 -2.3 27.8
16:25 1019 30.09 848 25.04 28.9 84 12 -3.1 26.4
16:30 1019 30.09 848 25.04 27.9 82.3 13 -2.3 27.8
16:35 1019 30.09 848 25.04 28.3 82.9 13 -2.8 26.9
16:40 1019 30.09 848 25.04 28.4 83.2 12 -2.9 26.7
16:45 1019 30.09 848 25.04 28.6 83.4 12 -2.9 26.8
16:50 1019 30.09 848 25.04 28.7 83.6 12 -3.3 26.1
16:55 1019 30.09 848 25.04 28.6 83.5 13 -2.6 27.4
17:00 1019 30.09 848 25.04 28.5 83.3 12 -3.9 25.1
17:05 1019 30.09 848 25.04 28.8 83.9 12 -3.2 26.3
17:10 1019 30.09 848 25.04 29.2 84.5 12 -3.3 26
17:15 1019 30.09 848 25.04 28.1 82.5 13 -3.1 26.4
17:20 1019 30.09 848 25.04 28.9 83.9 12 -3.3 26.1
17:25 1019 30.09 848 25.04 29 84.2 12 -3 26.6
17:30 1019 30.09 848 25.04 29.5 85 11 -3.3 26.1
17:35 1019 30.09 848 25.04 28.5 83.3 12 -3.4 25.8
17:40 1018 30.06 848 25.04 27.7 81.8 12 -3.6 25.6
17:45 1018 30.06 848 25.04 27.9 82.1 13 -3.2 26.3
17:50 1018 30.06 848 25.04 28.4 83.1 12 -3.2 26.3
17:55 1018 30.06 848 25.04 29.2 84.6 11 -3.6 25.5
18:00 1018 30.06 847 25.01 28.5 83.3 12 -3.6 25.6
18:05 1018 30.06 847 25.01 28.7 83.7 12 -3.6 25.6
18:10 1018 30.06 847 25.01 28.9 84 11 -3.8 25.2
18:15 1018 30.06 847 25.01 29.1 84.5 12 -3.3 26
18:20 1018 30.06 847 25.01 29.4 84.8 11 -3.8 25.2
18:25 1018 30.06 847 25.01 29.6 85.3 11 -3.5 25.7
18:30 1018 30.06 847 25.01 29.3 84.7 12 -3.2 26.2
18:35 1018 30.06 847 25.01 29.4 85 12 -2.6 27.3
18:40 1018 30.06 847 25.01 29.2 84.6 12 -3 26.7
18:45 1018 30.06 847 25.01 29.5 85 11 -3.5 25.8
18:50 1018 30.06 847 25.01 28.5 83.2 12 -3.3 26.1
18:55 1018 30.06 847 25.01 28.5 83.2 12 -3.4 25.9
19:00 1018 30.06 847 25.01 28.9 83.9 12 -3.4 25.8
19:05 1018 30.06 847 25.01 28.6 83.5 12 -3.6 25.5
19:10 1018 30.06 847 25.01 28.6 83.4 13 -2.7 27.1
19:15 1017 30.03 847 25.01 29 84.1 11 -3.6 25.5
19:20 1017 30.03 847 25.01 28.8 83.8 12 -3.5 25.7
19:25 1017 30.03 847 25.01 28.8 83.9 12 -2.7 27.1
19:30 1018 30.06 847 25.01 28 82.4 12 -3.3 26
19:35 1018 30.06 847 25.01 27.3 81.2 12 -3.8 25.2
19:40 1017 30.03 847 25.01 27.1 80.8 13 -3.3 26
19:45 1017 30.03 847 25.01 27.1 80.7 13 -3.8 25.2
19:50 1017 30.03 847 25.01 27.2 80.9 13 -2.8 26.9
19:55 1017 30.03 847 25.01 27.1 80.9 13 -3.7 25.4
20:00 1017 30.03 847 25.01 27 80.6 13 -3.5 25.8
20:05 1017 30.03 847 25.01 26.8 80.3 13 -3.3 26.1
20:10 1017 30.03 847 25.01 26.7 80 14 -2.9 26.7
20:15 1017 30.03 847 25.01 26.6 79.9 13 -3.6 25.6
20:20 1017 30.03 847 25.01 26.4 79.5 14 -3.3 26.1
20:25 1017 30.03 847 25.01 26.2 79.1 14 -2.7 27.1
20:30 1017 30.03 847 25.01 26 78.7 21 2.1 35.8
20:35 1017 30.03 847 25.01 25.7 78.2 25 4.5 40.1
20:40 1017 30.03 847 25.01 25 77.1 25 3.8 38.9
20:45 1017 30.03 847 25.01 24.8 76.6 27 4.9 40.8
20:50 1017 30.03 847 25.01 24.6 76.2 27 4.8 40.6
20:55 1017 30.03 847 25.01 24 75.2 29 5.1 41.2
21:00 1017 30.03 847 25.01 23.4 74.2 30 4.9 40.8
21:05 1017 30.03 847 25.01 22.8 73.1 29 4.3 39.7
21:10 1017 30.03 847 25.01 22.4 72.2 30 3.9 39.1
21:15 1017 30.03 847 25.01 21.9 71.3 30 3.5 38.3
21:20 1017 30.03 847 25.01 21.4 70.4 30 3 37.5
21:25 1017 30.03 847 25.01 21 69.7 30 3 37.5
21:30 1018 30.06 847 25.01 20.6 69.1 31 3.2 37.7
21:35 1018 30.06 847 25.01 20.3 68.6 31 2.8 37.1
21:40 1018 30.06 847 25.01 20.1 68.1 37 5.1 41.2
21:45 1018 30.06 847 25.01 19.3 66.8 38 4.7 40.4
21:50 1018 30.06 847 25.01 19.2 66.5 34 3.1 37.6
21:55 1018 30.06 847 25.01 19.3 66.7 34 3.1 37.5
22:00 1018 30.06 847 25.01 19.2 66.5 33 2.5 36.5
22:05 1018 30.06 847 25.01 19.4 66.8 32 2.3 36.1
22:10 1018 30.06 847 25.01 19.2 66.6 30 1.1 34
22:15 1018 30.06 848 25.04 19.2 66.6 30 1.4 34.6
22:20 1018 30.06 848 25.04 19.5 67.2 30 1.6 34.9
22:25 1019 30.09 848 25.04 19.4 67 33 2.9 37.3
22:30 1019 30.09 848 25.04 18.9 66 31 1.7 35.1
22:35 1019 30.09 848 25.04 18.6 65.5 32 1.8 35.2
22:40 1019 30.09 848 25.04 18.4 65 31 1.1 34.1
22:45 1019 30.09 848 25.04 18.2 64.8 31 1 33.7
22:50 1019 30.09 848 25.04 18.6 65.4 29 0.5 33
22:55 1019 30.09 848 25.04 18.6 65.5 31 1.2 34.1
23:00 1019 30.09 848 25.04 18.1 64.6 32 1.1 34.1
23:05 1019 30.09 848 25.04 18 64.4 32 1.3 34.3
23:10 1019 30.09 848 25.04 17.9 64.2 33 1.4 34.5
23:15 1019 30.09 848 25.04 17.5 63.5 34 1.7 35
23:20 1019 30.09 848 25.04 17.4 63.3 32 0.7 33.3
23:25 1019 30.09 848 25.04 17.6 63.6 35 2 35.5
23:30 1019 30.09 848 25.04 17 62.6 37 2.2 36
23:35 1019 30.09 848 25.04 16.7 62.1 38 2.6 36.7
23:40 1019 30.09 848 25.04 16.6 61.9 36 1.8 35.2
23:45 1019 30.09 848 25.04 16.5 61.7 38 2.1 35.8
23:50 1019 30.09 848 25.04 16.5 61.7 38 2.2 36
23:55 1019 30.09 848 25.04 16.3 61.3 40 2.6 36.7
24:00 1019 30.09 848 25.04 15.3 59.5 40 2 35.5